createdAt,value
2023-02-18T00:01:43.054Z,97289.91
2023-02-18T00:04:11.260Z,97345.09
2023-02-18T00:06:40.909Z,97316.88
2023-02-18T00:09:09.432Z,97346.03
2023-02-18T00:11:39.087Z,97319.34
2023-02-18T00:14:12.721Z,97324.31
2023-02-18T00:16:41.817Z,97330.72
2023-02-18T00:19:15.673Z,97335.66
2023-02-18T00:21:45.790Z,97318.81
2023-02-18T00:24:16.501Z,97246.06
2023-02-18T00:26:45.772Z,97288.38
2023-02-18T00:29:14.204Z,97316.03
2023-02-18T00:31:43.560Z,97263.78
2023-02-18T00:34:13.051Z,97303.03
2023-02-18T00:36:41.607Z,97292.09
2023-02-18T00:39:13.137Z,97276.22
2023-02-18T00:41:43.013Z,97302.34
2023-02-18T00:44:12.113Z,97298.44
2023-02-18T00:46:41.150Z,97280.34
2023-02-18T00:49:10.562Z,97276.50
2023-02-18T00:51:38.816Z,97286.28
2023-02-18T00:54:07.377Z,97254.91
2023-02-18T00:56:37.111Z,97316.47
2023-02-18T00:59:05.401Z,97292.75
2023-02-18T01:01:37.880Z,97313.00
2023-02-18T01:04:10.225Z,97303.31
2023-02-18T01:06:38.835Z,97299.69
2023-02-18T01:09:08.542Z,97285.00
2023-02-18T01:11:38.816Z,97311.88
2023-02-18T01:14:07.099Z,97376.28
2023-02-18T01:16:35.347Z,97341.44
2023-02-18T01:19:03.651Z,97284.75
2023-02-18T01:21:31.939Z,97293.72
2023-02-18T01:24:00.428Z,97263.31
2023-02-18T01:26:28.702Z,97296.75
2023-02-18T01:28:58.270Z,97295.00
2023-02-18T01:31:26.566Z,97265.94
2023-02-18T01:33:54.848Z,97318.91
2023-02-18T01:36:23.133Z,97274.41
2023-02-18T01:38:51.401Z,97260.03
2023-02-18T01:41:20.542Z,97319.34
2023-02-18T01:43:50.026Z,97335.53
2023-02-18T01:46:22.322Z,97289.47
2023-02-18T01:48:54.909Z,97274.00
2023-02-18T01:51:27.587Z,97259.09
2023-02-18T01:54:00.261Z,97296.97
2023-02-18T01:56:58.564Z,97313.28
2023-02-18T01:59:30.589Z,97281.06
2023-02-18T02:02:00.336Z,97222.03
2023-02-18T02:04:31.444Z,97304.56
2023-02-18T02:06:59.716Z,97292.25
2023-02-18T02:09:32.415Z,97232.81
2023-02-18T02:12:28.517Z,97262.94
2023-02-18T02:15:20.566Z,97281.22
2023-02-18T02:18:19.459Z,97222.31
2023-02-18T02:21:42.827Z,97288.94
2023-02-18T02:24:38.166Z,97219.97
2023-02-18T02:27:24.736Z,97262.66
2023-02-18T02:30:32.551Z,97231.69
2023-02-18T02:33:38.559Z,97253.25
2023-02-18T02:36:15.132Z,97289.47
2023-02-18T02:38:56.536Z,97270.97
2023-02-18T02:41:40.400Z,97245.91
2023-02-18T02:44:20.502Z,97213.16
2023-02-18T02:46:53.036Z,97268.22
2023-02-18T02:49:35.137Z,97236.63
2023-02-18T02:52:10.996Z,97181.63
2023-02-18T02:54:39.547Z,97226.69
2023-02-18T02:57:46.936Z,97233.13
2023-02-18T03:00:24.455Z,97246.53
2023-02-18T03:03:38.174Z,97261.47
2023-02-18T03:06:39.685Z,97238.78
2023-02-18T03:09:18.054Z,97197.78
2023-02-18T03:11:55.753Z,97180.50
2023-02-18T03:14:31.161Z,97229.47
2023-02-18T03:17:04.501Z,97201.13
2023-02-18T03:19:37.864Z,97238.34
2023-02-18T03:22:10.060Z,97201.53
2023-02-18T03:24:44.124Z,97219.94
2023-02-18T03:27:21.460Z,97224.41
2023-02-18T03:29:57.400Z,97188.13
2023-02-18T03:32:27.247Z,97241.41
2023-02-18T03:34:59.836Z,97220.09
2023-02-18T03:37:28.422Z,97235.72
2023-02-18T03:40:02.214Z,97258.53
2023-02-18T03:42:31.098Z,97212.34
2023-02-18T03:44:59.930Z,97233.63
2023-02-18T03:47:28.879Z,97075.84
2023-02-18T03:49:57.559Z,97182.59
2023-02-18T03:52:26.806Z,97229.91
2023-02-18T03:54:55.031Z,97165.13
2023-02-18T03:57:24.585Z,97204.03
2023-02-18T03:59:52.760Z,97174.56
2023-02-18T04:02:20.988Z,97209.13
2023-02-18T04:04:49.209Z,97209.41
2023-02-18T04:07:17.452Z,97231.97
2023-02-18T04:09:45.717Z,97191.84
2023-02-18T04:12:13.938Z,97207.47
2023-02-18T04:14:43.802Z,97208.19
2023-02-18T04:17:12.705Z,97157.41
2023-02-18T04:19:40.941Z,97175.81
2023-02-18T04:22:09.235Z,97226.84
2023-02-18T04:24:37.461Z,97213.00
2023-02-18T04:27:05.724Z,97219.78
2023-02-18T04:29:34.105Z,97176.31
2023-02-18T04:32:03.762Z,97215.19
2023-02-18T04:34:32.024Z,97196.38
2023-02-18T04:37:00.256Z,97241.72
2023-02-18T04:39:28.456Z,97196.69
2023-02-18T04:41:56.720Z,97205.06
2023-02-18T04:44:24.930Z,97165.91
2023-02-18T04:46:53.149Z,97233.44
2023-02-18T04:49:22.688Z,97160.00
2023-02-18T04:51:50.907Z,97215.50
2023-02-18T04:54:19.113Z,97149.03
2023-02-18T04:56:47.418Z,97190.34
2023-02-18T04:59:15.936Z,97233.19
2023-02-18T05:01:44.234Z,97228.63
2023-02-18T05:04:13.823Z,97244.81
2023-02-18T05:09:41.674Z,97189.47
2023-02-18T05:12:10.264Z,97213.97
2023-02-18T05:14:38.465Z,97222.97
2023-02-18T05:17:06.724Z,97224.91
2023-02-18T05:19:34.990Z,97235.16
2023-02-18T05:22:04.647Z,97207.72
2023-02-18T05:24:32.876Z,97211.06
2023-02-18T05:27:01.071Z,97198.63
2023-02-18T05:29:29.274Z,97217.72
2023-02-18T05:31:57.576Z,97139.31
2023-02-18T05:34:25.857Z,97226.38
2023-02-18T05:36:54.259Z,97205.44
2023-02-18T05:39:23.796Z,97188.63
2023-02-18T05:41:52.011Z,97181.75
2023-02-18T05:44:32.580Z,97186.75
2023-02-18T05:47:03.186Z,97208.69
2023-02-18T05:49:33.261Z,97216.91
2023-02-18T05:52:02.091Z,97210.88
2023-02-18T05:54:32.141Z,97220.25
2023-02-18T05:57:00.340Z,97199.53
2023-02-18T05:59:28.863Z,97192.34
2023-02-18T06:01:57.620Z,97158.56
2023-02-18T06:04:26.109Z,97172.28
2023-02-18T06:06:54.783Z,97211.13
2023-02-18T06:09:23.440Z,97206.97
2023-02-18T06:11:53.342Z,97233.00
2023-02-18T06:14:22.538Z,97206.69
2023-02-18T06:16:50.784Z,97207.94
2023-02-18T06:19:19.036Z,97233.97
2023-02-18T06:21:47.447Z,97189.72
2023-02-18T06:24:15.694Z,97181.50
2023-02-18T06:26:44.295Z,97257.88
2023-02-18T06:29:13.903Z,97214.06
2023-02-18T06:31:42.189Z,97250.31
2023-02-18T06:34:10.493Z,97194.53
2023-02-18T06:36:38.794Z,97271.47
2023-02-18T06:39:08.887Z,97253.91
2023-02-18T06:41:37.114Z,97250.00
2023-02-18T06:44:05.959Z,97226.91
2023-02-18T06:46:35.923Z,97278.53
2023-02-18T06:49:04.390Z,97174.06
2023-02-18T06:51:32.634Z,97209.78
2023-02-18T06:54:00.821Z,97246.06
2023-02-18T06:56:30.922Z,97215.59
2023-02-18T06:58:59.272Z,97224.19
2023-02-18T07:01:27.693Z,97168.69
2023-02-18T07:03:59.933Z,97213.69
2023-02-18T07:06:33.832Z,97130.94
2023-02-18T07:09:02.046Z,97259.03
2023-02-18T07:11:30.249Z,97191.56
2023-02-18T07:13:58.493Z,97190.16
2023-02-18T07:16:26.920Z,97169.81
2023-02-18T07:18:56.493Z,97196.38
2023-02-18T07:21:24.735Z,97135.38
2023-02-18T07:23:52.952Z,97169.66
2023-02-18T07:26:21.176Z,97154.97
2023-02-18T07:28:49.382Z,97152.94
2023-02-18T07:31:17.780Z,97215.16
2023-02-18T07:33:46.125Z,97112.66
2023-02-18T07:36:15.684Z,97175.81
2023-02-18T07:38:43.957Z,97151.13
2023-02-18T07:41:23.953Z,97190.38
2023-02-18T07:43:52.301Z,97155.53
2023-02-18T07:46:21.118Z,97139.97
2023-02-18T07:48:49.344Z,97135.03
2023-02-18T07:51:18.917Z,97161.53
2023-02-18T07:53:47.180Z,97137.06
2023-02-18T07:56:15.660Z,97136.34
2023-02-18T07:58:43.920Z,97153.78
2023-02-18T08:01:16.053Z,97171.75
2023-02-18T08:03:44.530Z,97144.38
2023-02-18T08:06:26.661Z,97122.56
2023-02-18T08:08:55.292Z,97124.16
2023-02-18T08:11:27.116Z,97161.78
2023-02-18T08:13:55.333Z,97128.38
2023-02-18T08:16:24.352Z,97110.56
2023-02-18T08:18:53.355Z,97162.78
2023-02-18T08:21:24.895Z,97109.56
2023-02-18T08:23:53.726Z,97132.06
2023-02-18T08:26:22.490Z,97147.00
2023-02-18T08:28:50.925Z,97146.41
2023-02-18T08:31:22.650Z,97145.91
2023-02-18T08:33:51.033Z,97159.66
2023-02-18T08:36:19.730Z,97133.97
2023-02-18T08:38:49.996Z,97113.34
2023-02-18T08:41:19.777Z,97091.06
2023-02-18T08:43:48.490Z,97100.56
2023-02-18T08:46:24.972Z,97114.69
2023-02-18T08:48:55.478Z,97120.06
2023-02-18T08:51:26.151Z,97111.84
2023-02-18T08:53:55.732Z,97116.00
2023-02-18T08:56:30.896Z,97074.34
2023-02-18T08:58:59.941Z,97096.78
2023-02-18T09:01:28.250Z,97123.41
2023-02-18T09:03:57.668Z,97131.19
2023-02-18T09:06:26.820Z,97069.75
2023-02-18T09:08:56.791Z,97134.31
2023-02-18T09:11:25.083Z,97082.97
2023-02-18T09:13:53.296Z,97115.75
2023-02-18T09:16:21.501Z,97123.44
2023-02-18T09:18:50.534Z,97102.25
2023-02-18T09:21:20.810Z,96954.53
2023-02-18T09:23:49.281Z,97068.56
2023-02-18T09:26:23.155Z,97106.81
2023-02-18T09:28:52.598Z,97054.53
2023-02-18T09:31:23.067Z,97078.69
2023-02-18T09:33:54.776Z,97074.00
2023-02-18T09:36:23.240Z,97027.88
2023-02-18T09:38:51.737Z,97053.06
2023-02-18T09:41:33.416Z,97052.09
2023-02-18T09:44:05.829Z,97026.25
2023-02-18T09:46:38.852Z,97061.72
2023-02-18T09:49:15.236Z,97022.41
2023-02-18T09:51:46.247Z,97079.69
2023-02-18T09:54:18.435Z,97081.53
2023-02-18T09:56:54.553Z,97060.97
2023-02-18T09:59:26.266Z,97025.03
2023-02-18T10:01:57.190Z,97067.69
2023-02-18T10:04:38.726Z,97066.06
2023-02-18T10:07:07.292Z,97071.50
2023-02-18T10:09:42.134Z,97083.06
2023-02-18T10:12:17.841Z,97084.34
2023-02-18T10:14:51.375Z,97047.97
2023-02-18T10:17:21.665Z,97011.34
2023-02-18T10:19:51.580Z,97026.22
2023-02-18T10:22:22.084Z,97090.13
2023-02-18T10:24:53.838Z,97086.16
2023-02-18T10:27:27.336Z,97096.56
2023-02-18T10:29:56.849Z,97052.38
2023-02-18T10:32:28.972Z,97085.22
2023-02-18T10:35:04.263Z,97066.97
2023-02-18T10:37:56.055Z,97053.31
2023-02-18T10:40:33.015Z,97057.16
2023-02-18T10:43:13.409Z,97067.34
2023-02-18T10:45:52.538Z,97038.97
2023-02-18T10:48:52.648Z,97075.63
2023-02-18T10:51:24.311Z,97050.09
2023-02-18T10:53:54.581Z,97050.53
2023-02-18T10:56:36.806Z,97073.31
2023-02-18T10:59:14.061Z,97072.16
2023-02-18T11:01:44.059Z,97037.66
2023-02-18T11:04:20.132Z,97077.25
2023-02-18T11:06:50.889Z,97048.88
2023-02-18T11:09:33.230Z,97011.25
2023-02-18T11:12:08.653Z,97047.06
2023-02-18T11:14:44.064Z,97003.66
2023-02-18T11:17:21.931Z,97057.28
2023-02-18T11:19:56.381Z,97068.97
2023-02-18T11:22:27.005Z,97076.59
2023-02-18T11:24:58.090Z,97047.88
2023-02-18T11:27:33.160Z,97056.78
2023-02-18T11:30:07.119Z,97058.09
2023-02-18T11:32:37.414Z,97016.03
2023-02-18T11:35:07.263Z,97044.72
2023-02-18T11:37:37.048Z,97056.44
2023-02-18T11:40:07.599Z,97025.44
2023-02-18T11:42:35.821Z,97003.00
2023-02-18T11:45:05.897Z,97048.78
2023-02-18T11:47:36.433Z,97056.72
2023-02-18T11:50:23.761Z,97046.84
2023-02-18T11:52:53.994Z,97024.41
2023-02-18T11:55:27.190Z,97051.09
2023-02-18T11:58:00.028Z,97028.03
2023-02-18T12:00:41.651Z,96987.09
2023-02-18T12:03:29.074Z,97010.22
2023-02-18T12:06:00.478Z,97056.50
2023-02-18T12:08:32.511Z,97018.44
2023-02-18T12:11:05.945Z,96997.13
2023-02-18T12:13:38.314Z,96997.13
2023-02-18T12:16:21.070Z,97003.22
2023-02-18T12:19:07.027Z,96955.38
2023-02-18T12:21:50.137Z,97019.66
2023-02-18T12:24:40.449Z,96777.22
2023-02-18T12:27:18.329Z,97031.53
2023-02-18T12:30:19.958Z,97032.75
2023-02-18T12:32:57.366Z,96967.97
2023-02-18T12:35:50.626Z,97027.59
2023-02-18T12:38:51.332Z,97004.53
2023-02-18T12:41:33.279Z,96987.41
2023-02-18T12:44:15.267Z,96939.75
2023-02-18T12:47:03.899Z,96982.75
2023-02-18T12:50:25.100Z,96979.78
2023-02-18T12:53:13.601Z,96958.53
2023-02-18T12:56:04.140Z,96941.59
2023-02-18T12:59:17.202Z,96976.06
2023-02-18T13:01:59.676Z,96981.13
2023-02-18T13:04:55.440Z,96988.03
2023-02-18T13:07:40.185Z,96977.19
2023-02-18T13:10:41.170Z,96943.19
2023-02-18T13:13:14.480Z,96953.84
2023-02-18T13:15:47.863Z,96972.34
2023-02-18T13:18:22.086Z,96996.84
2023-02-18T13:20:56.572Z,96977.66
2023-02-18T13:23:30.696Z,96889.59
2023-02-18T13:26:03.492Z,96944.28
2023-02-18T13:28:38.669Z,96963.56
2023-02-18T13:31:23.861Z,96954.59
2023-02-18T13:33:59.682Z,96940.59
2023-02-18T13:36:46.030Z,96969.94
2023-02-18T13:39:19.987Z,96969.00
2023-02-18T13:41:50.840Z,96910.31
2023-02-18T13:45:16.967Z,96970.09
2023-02-18T13:47:49.726Z,96958.41
2023-02-18T13:50:28.601Z,96993.34
2023-02-18T13:53:24.047Z,96943.16
2023-02-18T13:55:57.006Z,96978.31
2023-02-18T13:58:33.548Z,96946.16
2023-02-18T14:01:06.639Z,96952.09
2023-02-18T14:03:57.559Z,96957.00
2023-02-18T14:06:30.910Z,96926.72
2023-02-18T14:09:40.091Z,96921.59
2023-02-18T14:12:26.904Z,96937.59
2023-02-18T14:14:55.367Z,96913.69
2023-02-18T14:17:40.931Z,96942.03
2023-02-18T14:20:46.851Z,96922.94
2023-02-18T14:23:58.253Z,96932.66
2023-02-18T14:26:33.215Z,96911.59
2023-02-18T14:29:07.946Z,96928.22
2023-02-18T14:31:45.330Z,96900.97
2023-02-18T14:34:54.296Z,96944.50
2023-02-18T14:37:58.509Z,96912.88
2023-02-18T14:40:54.612Z,96865.56
2023-02-18T14:43:55.425Z,96936.25
2023-02-18T14:46:37.276Z,96914.88
2023-02-18T14:49:30.483Z,96892.06
2023-02-18T14:52:00.294Z,96938.75
2023-02-18T14:54:32.324Z,96927.19
2023-02-18T14:57:06.537Z,96918.75
2023-02-18T14:59:42.730Z,96859.38
2023-02-18T15:02:22.578Z,96939.56
2023-02-18T15:04:52.366Z,96931.31
2023-02-18T15:07:23.804Z,96870.84
2023-02-18T15:09:55.757Z,96923.75
2023-02-18T15:12:26.431Z,96870.38
2023-02-18T15:14:59.822Z,96930.16
2023-02-18T15:17:28.535Z,96898.72
2023-02-18T15:20:00.052Z,96870.34
2023-02-18T15:22:34.100Z,96936.25
2023-02-18T15:25:03.104Z,96901.16
2023-02-18T15:27:34.291Z,96884.88
2023-02-18T15:30:21.244Z,96899.00
2023-02-18T15:32:54.620Z,96923.38
2023-02-18T15:35:29.257Z,96918.59
2023-02-18T15:37:59.615Z,96950.94
2023-02-18T15:40:32.049Z,96929.03
2023-02-18T15:43:03.570Z,96907.84
2023-02-18T15:45:35.689Z,96923.41
2023-02-18T15:48:06.464Z,96914.50
2023-02-18T15:50:38.496Z,96933.28
2023-02-18T15:53:11.040Z,96923.06
2023-02-18T15:55:41.419Z,96957.69
2023-02-18T15:58:17.524Z,96934.88
2023-02-18T16:00:52.952Z,96883.50
2023-02-18T16:03:24.417Z,96914.09
2023-02-18T16:06:09.963Z,96888.25
2023-02-18T16:08:40.941Z,96912.78
2023-02-18T16:11:13.263Z,96943.69
2023-02-18T16:13:48.295Z,96906.19
2023-02-18T16:16:26.356Z,96885.97
2023-02-18T16:18:54.877Z,96924.53
2023-02-18T16:21:34.469Z,96915.91
2023-02-18T16:24:06.260Z,96942.53
2023-02-18T16:26:45.938Z,96917.28
2023-02-18T16:29:16.867Z,96985.31
2023-02-18T16:31:46.464Z,96953.69
2023-02-18T16:34:14.722Z,96790.56
2023-02-18T16:37:03.290Z,96959.84
2023-02-18T16:39:35.570Z,96945.31
2023-02-18T16:42:04.234Z,96961.16
2023-02-18T16:44:33.775Z,97025.44
2023-02-18T16:47:03.537Z,96946.97
2023-02-18T16:49:31.838Z,96947.94
2023-02-18T16:52:01.269Z,96953.56
2023-02-18T16:54:29.508Z,96926.88
2023-02-18T16:56:57.702Z,96996.34
2023-02-18T16:59:26.133Z,96981.03
2023-02-18T17:01:56.052Z,96927.56
2023-02-18T17:04:26.556Z,96983.72
2023-02-18T17:06:54.815Z,97034.94
2023-02-18T17:09:27.089Z,97013.53
2023-02-18T17:11:57.196Z,96950.94
2023-02-18T17:14:25.456Z,97034.25
2023-02-18T17:16:55.863Z,97018.25
2023-02-18T17:19:25.508Z,97028.09
2023-02-18T17:21:53.730Z,97014.63
2023-02-18T17:24:22.051Z,97013.25
2023-02-18T17:26:50.249Z,97035.47
2023-02-18T17:29:19.619Z,97032.75
2023-02-18T17:31:48.633Z,97020.50
2023-02-18T17:34:23.025Z,97046.69
2023-02-18T17:36:52.689Z,96990.72
2023-02-18T17:39:22.670Z,97063.34
2023-02-18T17:41:51.353Z,97079.22
2023-02-18T17:44:22.302Z,97007.00
2023-02-18T17:46:50.989Z,97023.06
2023-02-18T17:49:19.257Z,97048.63
2023-02-18T17:51:47.515Z,97052.63
2023-02-18T17:54:22.664Z,97069.50
2023-02-18T17:56:51.123Z,97060.38
2023-02-18T17:59:19.357Z,97159.78
2023-02-18T18:01:48.058Z,97044.34
2023-02-18T18:04:18.304Z,97070.59
2023-02-18T18:06:47.072Z,97056.25
2023-02-18T18:09:15.349Z,97087.16
2023-02-18T18:11:45.008Z,97122.00
2023-02-18T18:14:15.114Z,97113.88
2023-02-18T18:16:43.401Z,97033.88
2023-02-18T18:19:11.636Z,97025.91
2023-02-18T18:21:40.047Z,97029.47
2023-02-18T18:24:10.362Z,97116.34
2023-02-18T18:26:38.549Z,97114.81
2023-02-18T18:29:08.356Z,97099.47
2023-02-18T18:31:37.519Z,97081.00
2023-02-18T18:34:05.838Z,97128.47
2023-02-18T18:36:34.062Z,97117.44
2023-02-18T18:39:02.810Z,97087.06
2023-02-18T18:41:31.191Z,97083.22
2023-02-18T18:43:59.381Z,97009.91
2023-02-18T18:46:33.555Z,97062.06
2023-02-18T18:49:01.741Z,97090.66
2023-02-18T18:51:32.536Z,97093.13
2023-02-18T18:54:00.815Z,97078.38
2023-02-18T18:56:29.071Z,97039.31
2023-02-18T18:58:57.375Z,97097.41
2023-02-18T19:01:27.567Z,97099.09
2023-02-18T19:04:07.119Z,97062.47
2023-02-18T19:06:35.632Z,97038.34
2023-02-18T19:09:03.825Z,97097.69
2023-02-18T19:11:32.094Z,97080.31
2023-02-18T19:14:00.316Z,97075.59
2023-02-18T19:16:35.530Z,97107.59
2023-02-18T19:19:03.733Z,97085.53
2023-02-18T19:21:33.525Z,97083.63
2023-02-18T19:24:01.741Z,97098.22
2023-02-18T19:26:29.979Z,97064.81
2023-02-18T19:28:58.237Z,97084.72
2023-02-18T19:31:26.909Z,97126.69
2023-02-18T19:33:55.602Z,97115.91
2023-02-18T19:36:23.856Z,97124.75
2023-02-18T19:38:53.454Z,97076.41
2023-02-18T19:41:21.670Z,97071.44
2023-02-18T19:43:49.873Z,97060.97
2023-02-18T19:46:19.885Z,97075.88
2023-02-18T19:48:50.649Z,97023.25
2023-02-18T19:51:19.119Z,97070.34
2023-02-18T19:53:47.443Z,97031.44
2023-02-18T19:56:17.041Z,97056.28
2023-02-18T19:58:45.406Z,97103.50
2023-02-18T20:01:14.430Z,97025.94
2023-02-18T20:03:43.043Z,97031.72
2023-02-18T20:06:16.999Z,97153.59
2023-02-18T20:08:45.471Z,97102.38
2023-02-18T20:11:13.944Z,97109.00
2023-02-18T20:13:44.061Z,97079.59
2023-02-18T20:16:12.749Z,97079.16
2023-02-18T20:18:41.056Z,97026.88
2023-02-18T20:21:12.587Z,97077.81
2023-02-18T20:23:40.971Z,97068.53
2023-02-18T20:26:09.532Z,97087.19
2023-02-18T20:28:37.766Z,97105.97
2023-02-18T20:31:09.891Z,97049.91
2023-02-18T20:33:38.856Z,96999.69
2023-02-18T20:36:08.560Z,97047.88
2023-02-18T20:38:38.306Z,97093.53
2023-02-18T20:41:07.578Z,97030.59
2023-02-18T20:43:36.011Z,97104.97
2023-02-18T20:46:07.886Z,97055.16
2023-02-18T20:48:36.993Z,97106.78
2023-02-18T20:51:06.302Z,97087.72
2023-02-18T20:53:35.795Z,97101.28
2023-02-18T20:56:04.477Z,97076.97
2023-02-18T20:58:33.474Z,97005.97
2023-02-18T21:01:03.938Z,96985.81
2023-02-18T21:03:34.948Z,97067.06
2023-02-18T21:06:06.447Z,97088.16
2023-02-18T21:08:37.952Z,97079.59
2023-02-18T21:11:11.239Z,97083.59
2023-02-18T21:13:39.890Z,97020.91
2023-02-18T21:16:09.842Z,97085.81
2023-02-18T21:18:39.685Z,97083.31
2023-02-18T21:21:10.298Z,97056.84
2023-02-18T21:23:39.695Z,97054.59
2023-02-18T21:26:11.154Z,97017.88
2023-02-18T21:28:40.207Z,97053.09
2023-02-18T21:31:17.456Z,97058.75
2023-02-18T21:33:47.445Z,97091.72
2023-02-18T21:36:16.466Z,97053.22
2023-02-18T21:38:45.486Z,97085.53
2023-02-18T21:41:13.887Z,97101.25
2023-02-18T21:43:45.332Z,97017.34
2023-02-18T21:46:17.500Z,97076.94
2023-02-18T21:49:04.938Z,97084.66
2023-02-18T21:51:54.911Z,97074.16
2023-02-18T21:54:26.090Z,97061.78
2023-02-18T21:56:55.757Z,97096.25
2023-02-18T21:59:27.156Z,97053.75
2023-02-18T22:01:56.610Z,97077.22
2023-02-18T22:04:26.587Z,97093.75
2023-02-18T22:06:54.836Z,97073.34
2023-02-18T22:09:23.423Z,97095.41
2023-02-18T22:11:52.005Z,97090.03
2023-02-18T22:14:20.240Z,97017.59
2023-02-18T22:16:48.596Z,97080.50
2023-02-18T22:19:17.078Z,97074.16
2023-02-18T22:21:47.124Z,97077.22
2023-02-18T22:24:16.547Z,97072.78
2023-02-18T22:26:46.707Z,97094.84
2023-02-18T22:29:16.784Z,97081.72
2023-02-18T22:31:45.519Z,96917.06
2023-02-18T22:34:14.329Z,97057.06
2023-02-18T22:36:42.910Z,97079.00
2023-02-18T22:39:15.301Z,97090.19
2023-02-18T22:41:44.426Z,97074.47
2023-02-18T22:44:16.245Z,97058.19
2023-02-18T22:46:45.220Z,97093.38
2023-02-18T22:49:14.100Z,97047.72
2023-02-18T22:51:44.681Z,97083.53
2023-02-18T22:54:16.905Z,97046.84
2023-02-18T22:56:46.815Z,97012.38
2023-02-18T22:59:19.162Z,96982.03
2023-02-18T23:01:50.500Z,97028.91
2023-02-18T23:04:21.820Z,97039.81
2023-02-18T23:06:51.391Z,97047.38
2023-02-18T23:09:24.819Z,96992.78
2023-02-18T23:11:56.245Z,97000.78
2023-02-18T23:14:25.301Z,97025.06
2023-02-18T23:17:17.736Z,97028.91
2023-02-18T23:19:48.034Z,96698.75
2023-02-18T23:22:19.090Z,97017.56
2023-02-18T23:24:49.570Z,97009.88
2023-02-18T23:27:18.702Z,96971.00
2023-02-18T23:29:47.339Z,96976.25
2023-02-18T23:32:15.963Z,97022.44
2023-02-18T23:34:44.245Z,96970.28
2023-02-18T23:37:13.198Z,96988.91
2023-02-18T23:39:41.587Z,97012.50
2023-02-18T23:42:11.155Z,96958.81
2023-02-18T23:44:39.349Z,97025.59
2023-02-18T23:47:08.487Z,96933.88
2023-02-18T23:49:36.711Z,97004.34
2023-02-18T23:52:05.904Z,96975.38
2023-02-18T23:54:34.237Z,96996.25
2023-02-18T23:57:02.422Z,96993.88
2023-02-18T23:59:31.948Z,97043.66
